ADDS METAR Data INFO
IDs: Format: Raw Decoded Include TAF

Data at: 0848 UTC 22 Feb 2018

KCPW 220830Z AUTO 22020G26KT OVC001 M11/M12 A2993 RMK AO2 PWINO
KCPW 220824Z AUTO 21017G25KT OVC001 M11/M12 A2993 RMK AO2 PWINO
KCPW 220806Z AUTO 20012G28KT 170V240 OVC001 M11/M11 A2993 RMK AO2 PWINO
KCPW 220748Z AUTO 20021G29KT OVC001 M11/M11 A2993 RMK AO2 PWINO
KCPW 220730Z AUTO 20024G39KT OVC001 M11/M12 A2992 RMK AO2 PWINO
KCPW 220724Z AUTO 20029G39KT OVC001 M11/M12 A2991 RMK AO2 PWINO
KCPW 220706Z AUTO 20025G37KT OVC001 M11/M12 A2993 RMK AO2 PWINO
KCPW 220648Z AUTO 21022G35KT OVC001 M11/M12 A2993 RMK AO2 PWINO
KCPW 220630Z AUTO 20020G38KT OVC001 M11/M11 A2993 RMK AO2 PWINO
KCPW 220624Z AUTO 20020G35KT OVC001 M11/M11 A2994 RMK AO2 PWINO
KCPW 220606Z AUTO 20019G28KT OVC003 M11/M11 A2994 RMK AO2 PWINO
KCPW 220548Z AUTO 20020G32KT OVC003 M11/M11 A2994 RMK AO2 PWINO
KCPW 220530Z AUTO 20022G30KT OVC003 M11/M11 A2994 RMK AO2 PWINO
KCPW 220524Z AUTO 20021G30KT OVC003 M11/M11 A2994 RMK AO2 PWINO
KCPW 220506Z AUTO 20015G21KT OVC003 M11/M11 A2995 RMK AO2 PWINO
KCPW 220448Z AUTO 20015G20KT OVC003 M11/M11 A2996 RMK AO2 PWINO
KCPW 220430Z AUTO 19013G17KT OVC003 M12/M12 A2997 RMK AO2 PWINO
KCPW 220424Z AUTO 19013G17KT OVC003 M12/M12 A2997 RMK AO2 PWINO
KCPW 220406Z AUTO 20010KT OVC003 M12/M12 A2997 RMK AO2 PWINO
KCPW 220348Z AUTO 19009KT OVC003 M12/M12 A2997 RMK AO2 P0001 PWINO
KCPW 220030Z AUTO 20010KT M12/M12 A2998 RMK AO2 PWINO
KCPW 220024Z AUTO 20011KT BKN001 BKN007 OVC011 M12/M12 A2998 RMK AO2 PWINO
KCPW 220006Z AUTO 19011G17KT BKN001 BKN006 OVC012 M12/M12 A2999 RMK AO2 PWINO
KCPW 212347Z AUTO 19012G20KT OVC003 M12/M12 A2999 RMK AO2 PWINO
KCPW 212330Z AUTO 19013G19KT OVC003 M12/M12 A3000 RMK AO2 PWINO
KCPW 212324Z AUTO 19012G20KT OVC003 M12/M12 A3000 RMK AO2 PWINO
KCPW 212306Z AUTO 20011G20KT OVC003 M12/M12 A3000 RMK AO2 PWINO
KCPW 212247Z AUTO 20013G20KT OVC003 M12/M12 A2999 RMK AO2 PWINO
KCPW 212230Z AUTO 19015G22KT BKN003 OVC009 M12/M12 A2999 RMK AO2 PWINO
KCPW 212224Z AUTO 21014G22KT BKN003 OVC011 M12/M12 A2999 RMK AO2 PWINO
KCPW 212206Z AUTO 20016G23KT BKN003 BKN008 OVC014 M12/M12 A2999 RMK AO2 PWINO
KCPW 212147Z AUTO 20015G23KT BKN005 OVC008 M12/M13 A2999 RMK AO2 PWINO
KCPW 212130Z AUTO 20010G23KT BKN003 OVC008 M12/M12 A2999 RMK AO2 PWINO
KCPW 212124Z AUTO 20016G23KT OVC003 M12/M12 A2998 RMK AO2 PWINO
KCPW 212106Z AUTO 20020G27KT OVC003 M12/M13 A2998 RMK AO2 PWINO
KCPW 212048Z AUTO 22016G21KT BKN001 OVC006 M13/M13 A2999 RMK AO2 PWINO
KCPW 212030Z AUTO 19015G22KT BKN003 OVC011 M12/M13 A2999 RMK AO2 PWINO
KCPW 212024Z AUTO 20015G21KT M12/M13 A3000 RMK AO2 PWINO
KCPW 212006Z AUTO 19015G24KT M12/M13 A3000 RMK AO2 PWINO
KCPW 211948Z AUTO 20017G24KT BKN005 BKN010 OVC014 M13/M13 A3000 RMK AO2 PWINO
KCPW 211930Z AUTO 20017G24KT BKN005 OVC015 M13/M13 A3001 RMK AO2 PWINO
KCPW 211924Z AUTO 20017G24KT BKN005 OVC013 M13/M13 A3001 RMK AO2 PWINO
KCPW 211906Z AUTO 19018G26KT BKN005 OVC011 M13/M14 A3002 RMK AO2 PWINO
KCPW 211847Z AUTO 20019G28KT BKN005 OVC011 M13/M13 A3002 RMK AO2 PWINO
KCPW 211830Z AUTO 20017G27KT M13/M15 A3002 RMK AO2 PWINO
KCPW 211824Z AUTO 20018G27KT M13/M15 A3002 RMK AO2 PWINO
KCPW 211806Z AUTO 19019G27KT M14/M15 A3002 RMK AO2 PWINO
KCPW 211748Z AUTO 19017G30KT M14/M15 A3002 RMK AO2 PWINO
KCPW 211730Z AUTO 19023G29KT BKN007 OVC012 M14/M15 A3002 RMK AO2 PWINO
KCPW 211724Z AUTO 19019G27KT BKN006 OVC011 M15/M15 A3002 RMK AO2 PWINO
KCPW 211706Z AUTO 20018G25KT BKN006 OVC010 M15/M16 A3002 RMK AO2 PWINO
KCPW 211648Z AUTO 20015G22KT BKN006 BKN010 M15/M15 A3002 RMK AO2 PWINO
KCPW 211630Z AUTO 20016G22KT BKN006 BKN011 M15/M16 A3002 RMK AO2 PWINO
KCPW 211624Z AUTO 20015G23KT BKN006 BKN011 M15/M16 A3002 RMK AO2 PWINO
KCPW 211606Z AUTO 19016G23KT OVC006 M16/M16 A3002 RMK AO2 PWINO
KCPW 211548Z AUTO 20016G24KT OVC006 M16/M17 A3002 RMK AO2 PWINO
KCPW 211530Z AUTO 20016G20KT M16/M17 A3001 RMK AO2 PWINO
KCPW 211524Z AUTO 19015G20KT M16/M17 A3001 RMK AO2 PWINO
KCPW 211506Z AUTO 20014G20KT M17/M18 A3000 RMK AO2 PWINO
KCPW 201449Z AUTO 21021G31KT OVC002 M20/M21 A2966 RMK AO2 PWINO
KCPW 211447Z AUTO 20015G20KT M17/M18 A2999 RMK AO2 PWINO
KCPW 211429Z AUTO 20014G19KT M17/M18 A2999 RMK AO2 SKY OBSCURED PWINO
KCPW 211406Z AUTO 19014G19KT OVC100 M18/M20 A2999 RMK AO2 PWINO
KCPW 211348Z AUTO 19013G21KT M18/M20 A3000 RMK AO2 PWINO
KCPW 211330Z AUTO 19014G18KT M19/M20 A2999 RMK AO2 SKY OBSCURED PWINO
KCPW 211324Z AUTO 19013G18KT M19/M20 A2999 RMK AO2 SKY OBSCURED PWINO
KCPW 211306Z AUTO 19013G18KT M19/M20 A2999 RMK AO2 SKY OBSCURED PWINO
KCPW 211247Z AUTO 20014G20KT M18/M20 A2999 RMK AO2 SKY OBSCURED PWINO
KCPW 211230Z AUTO 20012KT M19/M20 A2999 RMK AO2 SKY OBSCURED PWINO
KCPW 211224Z AUTO 20013G19KT M19/M20 A2998 RMK AO2 SKY OBSCURED PWINO
KCPW 210748Z AUTO 19011G17KT OVC001 M19/M20 A2997 RMK AO2 PWINO
KCPW 210730Z AUTO 19010G15KT OVC001 M18/M20 A2997 RMK AO2 PWINO
KCPW 210724Z AUTO 20007KT OVC001 M19/M20 A2997 RMK AO2 PWINO
KCPW 210706Z AUTO 20010G16KT OVC001 M19/M20 A2997 RMK AO2 PWINO
KCPW 210648Z AUTO 20010G17KT OVC001 M19/M20 A2997 RMK AO2 PWINO
KCPW 210630Z AUTO 19013G17KT OVC001 M19/M20 A2996 RMK AO2 PWINO
KCPW 210624Z AUTO 20011G17KT OVC001 M19/M20 A2995 RMK AO2 PWINO
KCPW 210606Z AUTO 20012G19KT OVC001 M19/M20 A2995 RMK AO2 PWINO
KCPW 210548Z AUTO 20014G23KT OVC001 M19/M20 A2994 RMK AO2 PWINO